Map

Track Data

SID SEASON NUMBER BASIN SUBBASIN NAME ISO_TIME NATURE LAT LON WMO_WIND WMO_PRES WMO_AGENCY TRACK_TYPE DIST2LAND LANDFALL IFLAG USA_AGENCY USA_ATCF_ID USA_LAT USA_LON USA_RECORD USA_STATUS USA_WIND USA_PRES USA_SSHS USA_R34_NE USA_R34_SE USA_R34_SW USA_R34_NW USA_R50_NE USA_R50_SE USA_R50_SW USA_R50_NW USA_R64_NE USA_R64_SE USA_R64_SW USA_R64_NW USA_POCI USA_ROCI USA_RMW USA_EYE TOKYO_LAT TOKYO_LON TOKYO_GRADE TOKYO_WIND TOKYO_PRES TOKYO_R50_DIR TOKYO_R50_LONG TOKYO_R50_SHORT TOKYO_R30_DIR TOKYO_R30_LONG TOKYO_R30_SHORT TOKYO_LAND CMA_LAT CMA_LON CMA_CAT CMA_WIND CMA_PRES HKO_LAT HKO_LON HKO_CAT HKO_WIND HKO_PRES NEWDELHI_LAT NEWDELHI_LON NEWDELHI_GRADE NEWDELHI_WIND NEWDELHI_PRES NEWDELHI_CI NEWDELHI_DP NEWDELHI_POCI REUNION_LAT REUNION_LON REUNION_TYPE REUNION_WIND REUNION_PRES REUNION_TNUM REUNION_CI REUNION_RMW REUNION_R34_NE REUNION_R34_SE REUNION_R34_SW REUNION_R34_NW REUNION_R50_NE REUNION_R50_SE REUNION_R50_SW REUNION_R50_NW REUNION_R64_NE REUNION_R64_SE REUNION_R64_SW REUNION_R64_NW BOM_LAT BOM_LON BOM_TYPE BOM_WIND BOM_PRES BOM_TNUM BOM_CI BOM_RMW BOM_R34_NE BOM_R34_SE BOM_R34_SW BOM_R34_NW BOM_R50_NE BOM_R50_SE BOM_R50_SW BOM_R50_NW BOM_R64_NE BOM_R64_SE BOM_R64_SW BOM_R64_NW BOM_ROCI BOM_POCI BOM_EYE BOM_POS_METHOD BOM_PRES_METHOD NADI_LAT NADI_LON NADI_CAT NADI_WIND NADI_PRES WELLINGTON_LAT WELLINGTON_LON WELLINGTON_WIND WELLINGTON_PRES DS824_LAT DS824_LON DS824_STAGE DS824_WIND DS824_PRES TD9636_LAT TD9636_LON TD9636_STAGE TD9636_WIND TD9636_PRES TD9635_LAT TD9635_LON TD9635_WIND TD9635_PRES TD9635_ROCI NEUMANN_LAT NEUMANN_LON NEUMANN_CLASS NEUMANN_WIND NEUMANN_PRES MLC_LAT MLC_LON MLC_CLASS MLC_WIND MLC_PRES USA_GUST BOM_GUST BOM_GUST_PER REUNION_GUST REUNION_GUST_PER USA_SEAHGT USA_SEARAD_NE USA_SEARAD_SE USA_SEARAD_SW USA_SEARAD_NW STORM_SPEED STORM_DIR
1958323N06108 1958 108 WP MM NOT_NAMED 1958-11-18 12:00:00 NR 5.50000 107.600 main 166 166 __________O___ -1 5.50000 107.600 1 4 256
1958323N06108 1958 108 WP MM NOT_NAMED 1958-11-18 15:00:00 NR 5.45003 107.405 main 175 165 __________P___ -1 5.45003 107.405 1 4 257
1958323N06108 1958 108 WP MM NOT_NAMED 1958-11-18 18:00:00 NR 5.41003 107.207 main 176 176 __________P___ -1 5.41003 107.207 1 4 261
1958323N06108 1958 108 WP MM NOT_NAMED 1958-11-18 21:00:00 NR 5.39001 107.007 main 190 190 __________P___ -1 5.39001 107.007 1 4 269
1958323N06108 1958 108 WP MM NOT_NAMED 1958-11-19 00:00:00 NR 5.40000 106.800 main 204 204 __________O___ -1 5.40000 106.800 1 4 278
1958323N06108 1958 108 WP MM NOT_NAMED 1958-11-19 03:00:00 NR 5.44626 106.588 main 220 220 __________P___ -1 5.44626 106.588 1 4 286
1958323N06108 1958 108 WP MM NOT_NAMED 1958-11-19 06:00:00 NR 5.52001 106.378 main 244 244 __________P___ -1 5.52001 106.378 1 4 292
1958323N06108 1958 108 WP MM NOT_NAMED 1958-11-19 09:00:00 NR 5.60876 106.178 main 268 268 __________P___ -1 5.60876 106.178 1 4 296
1958323N06108 1958 108 WP MM NOT_NAMED 1958-11-19 12:00:00 NR 5.70000 106.000 main 292 292 __________O___ -1 5.70000 106.000 1 3 303
1958323N06108 1958 108 WP MM NOT_NAMED 1958-11-19 15:00:00 NR 5.77069 105.922 main 298 298 __________P___ -1 5.77069 105.922 1 2 315
1958323N06108 1958 108 WP MM NOT_NAMED 1958-11-19 18:00:00 NR 5.84208 105.855 main 298 283 __________P___ -1 5.84208 105.855 1 2 308
1958323N06108 1958 108 WP MM NOT_NAMED 1958-11-19 21:00:00 NR 5.91745 105.735 main 283 268 __________P___ -1 5.91745 105.735 1 4 294
1958323N06108 1958 108 WP MM NOT_NAMED 1958-11-20 00:00:00 NR 6.00000 105.500 main 268 228 __________O___ -1 6.00000 105.500 1 7 281
1958323N06108 1958 108 WP MM NOT_NAMED 1958-11-20 03:00:00 NR 6.04844 105.064 main 228 173 __________P___ -1 6.04844 105.064 1 10 276
1958323N06108 1958 108 WP MM NOT_NAMED 1958-11-20 06:00:00 NR 6.11045 104.512 main 173 126 __________P___ -1 6.11045 104.512 1 12 278
1958323N06108 1958 108 WP MM NOT_NAMED 1958-11-20 09:00:00 NR 6.21718 103.904 main 126 99 __________P___ -1 6.21718 103.904 1 12 284
1958323N06108 1958 108 WP MM NOT_NAMED 1958-11-20 12:00:00 NR 6.40000 103.300 main 102 71 __________O___ -1 6.40000 103.300 1 12 292
1958323N06108 1958 108 WP MM NOT_NAMED 1958-11-20 15:00:00 NR 6.68079 102.746 main 74 74 __________P___ -1 6.68079 102.746 1 12 301
1958323N06108 1958 108 WP MM NOT_NAMED 1958-11-20 18:00:00 NR 7.04242 102.239 main 69 62 __________P___ -1 7.04242 102.239 1 13 309
1958323N06108 1958 108 WP MM NOT_NAMED 1958-11-20 21:00:00 NR 7.45787 101.762 main 81 79 __________P___ -1 7.45787 101.762 1 13 313
1958323N06108 1958 108 WP MM NOT_NAMED 1958-11-21 00:00:00 NR 7.90000 101.300 main 98 __________O___ -1 7.90000 101.300 1 13 314

Digital Typhoon Data and Search

About IBTrACS Database

This database is a web-friendly format of International Best Track Archive for Climate Stewardship (IBTrACS), a global best track data archive curated by NOAA dating back to 1842.

Updated: 2021-10-08